sensor_id;sensor_type;location;lat;lon;timestamp;pressure;altitude;pressure_sealevel;temperature;humidity
6136;BME280;24008;42.664;23.372;2023-06-26T00:00:33;94522.09;;;19.52;100.00
6136;BME280;24008;42.664;23.372;2023-06-26T00:02:59;94540.25;;;19.65;100.00
6136;BME280;24008;42.664;23.372;2023-06-26T00:05:27;94555.78;;;19.78;100.00
6136;BME280;24008;42.664;23.372;2023-06-26T00:07:55;94554.19;;;19.77;100.00
6136;BME280;24008;42.664;23.372;2023-06-26T00:10:25;94486.00;;;19.30;100.00
6136;BME280;24008;42.664;23.372;2023-06-26T00:12:54;94551.78;;;19.75;100.00
6136;BME280;24008;42.664;23.372;2023-06-26T00:15:20;94556.56;;;19.72;100.00
6136;BME280;24008;42.664;23.372;2023-06-26T00:17:47;94554.78;;;19.72;100.00
6136;BME280;24008;42.664;23.372;2023-06-26T00:20:16;94493.16;;;19.28;100.00
6136;BME280;24008;42.664;23.372;2023-06-26T00:22:44;94491.97;;;19.31;100.00
6136;BME280;24008;42.664;23.372;2023-06-26T00:25:11;94545.44;;;19.65;100.00
6136;BME280;24008;42.664;23.372;2023-06-26T00:27:38;94499.53;;;19.32;100.00
6136;BME280;24008;42.664;23.372;2023-06-26T00:30:07;94539.03;;;19.61;100.00
6136;BME280;24008;42.664;23.372;2023-06-26T00:32:34;94431.59;;;18.91;100.00
6136;BME280;24008;42.664;23.372;2023-06-26T00:35:01;94508.13;;;19.39;100.00
6136;BME280;24008;42.664;23.372;2023-06-26T00:37:27;94580.09;;;19.57;100.00
6136;BME280;24008;42.664;23.372;2023-06-26T00:39:54;94467.84;;;19.11;100.00
6136;BME280;24008;42.664;23.372;2023-06-26T00:42:21;94538.25;;;19.54;100.00
6136;BME280;24008;42.664;23.372;2023-06-26T00:44:48;94533.06;;;19.54;100.00
6136;BME280;24008;42.664;23.372;2023-06-26T00:47:17;94528.28;;;19.51;100.00
6136;BME280;24008;42.664;23.372;2023-06-26T00:49:44;94348.50;;;18.33;100.00
6136;BME280;24008;42.664;23.372;2023-06-26T00:52:11;94540.25;;;19.52;100.00
6136;BME280;24008;42.664;23.372;2023-06-26T00:54:37;94505.91;;;19.23;100.00
6136;BME280;24008;42.664;23.372;2023-06-26T00:57:04;94423.41;;;18.81;100.00
6136;BME280;24008;42.664;23.372;2023-06-26T00:59:31;94439.34;;;18.91;100.00
6136;BME280;24008;42.664;23.372;2023-06-26T01:01:58;94528.03;;;19.46;100.00
6136;BME280;24008;42.664;23.372;2023-06-26T01:04:26;94520.69;;;19.42;100.00
6136;BME280;24008;42.664;23.372;2023-06-26T01:06:59;94502.53;;;19.29;100.00
6136;BME280;24008;42.664;23.372;2023-06-26T01:09:47;94358.44;;;18.43;100.00
6136;BME280;24008;42.664;23.372;2023-06-26T01:12:14;94453.28;;;19.10;100.00
6136;BME280;24008;42.664;23.372;2023-06-26T01:14:41;94556.38;;;19.40;100.00
6136;BME280;24008;42.664;23.372;2023-06-26T01:17:09;94347.09;;;18.30;100.00
6136;BME280;24008;42.664;23.372;2023-06-26T01:19:42;94342.50;;;18.32;100.00
6136;BME280;24008;42.664;23.372;2023-06-26T01:22:18;94482.81;;;19.15;100.00
6136;BME280;24008;42.664;23.372;2023-06-26T01:24:55;94375.56;;;18.50;100.00
6136;BME280;24008;42.664;23.372;2023-06-26T01:27:25;94461.28;;;19.01;100.00
6136;BME280;24008;42.664;23.372;2023-06-26T01:29:53;94266.03;;;17.77;100.00
6136;BME280;24008;42.664;23.372;2023-06-26T01:32:22;94499.13;;;19.22;100.00
6136;BME280;24008;42.664;23.372;2023-06-26T01:34:49;94396.06;;;18.52;100.00
6136;BME280;24008;42.664;23.372;2023-06-26T01:37:16;94415.84;;;18.66;100.00
6136;BME280;24008;42.664;23.372;2023-06-26T01:39:42;94405.03;;;18.49;100.00
6136;BME280;24008;42.664;23.372;2023-06-26T01:42:09;94494.34;;;18.99;100.00
6136;BME280;24008;42.664;23.372;2023-06-26T01:44:41;94462.03;;;18.76;100.00
6136;BME280;24008;42.664;23.372;2023-06-26T01:47:12;94370.34;;;18.11;100.00
6136;BME280;24008;42.664;23.372;2023-06-26T01:49:48;94349.19;;;17.94;100.00
6136;BME280;24008;42.664;23.372;2023-06-26T01:52:20;94432.28;;;18.32;100.00
6136;BME280;24008;42.664;23.372;2023-06-26T01:54:56;94498.28;;;18.76;100.00
6136;BME280;24008;42.664;23.372;2023-06-26T01:57:26;94365.28;;;17.89;100.00
6136;BME280;24008;42.664;23.372;2023-06-26T01:59:56;94486.53;;;18.66;100.00
6136;BME280;24008;42.664;23.372;2023-06-26T02:02:24;94487.91;;;18.62;100.00
6136;BME280;24008;42.664;23.372;2023-06-26T02:04:51;94501.84;;;18.61;100.00
6136;BME280;24008;42.664;23.372;2023-06-26T02:07:18;94343.09;;;17.60;100.00
6136;BME280;24008;42.664;23.372;2023-06-26T02:09:44;94424.47;;;18.19;100.00
6136;BME280;24008;42.664;23.372;2023-06-26T02:12:11;94401.53;;;18.03;100.00
6136;BME280;24008;42.664;23.372;2023-06-26T02:14:38;94488.91;;;18.61;100.00
6136;BME280;24008;42.664;23.372;2023-06-26T02:17:06;94409.94;;;18.11;100.00
6136;BME280;24008;42.664;23.372;2023-06-26T02:19:34;94344.72;;;17.68;100.00
6136;BME280;24008;42.664;23.372;2023-06-26T02:22:01;94497.88;;;18.65;100.00
6136;BME280;24008;42.664;23.372;2023-06-26T02:24:28;94495.91;;;18.67;100.00
6136;BME280;24008;42.664;23.372;2023-06-26T02:26:55;94446.81;;;18.33;100.00
6136;BME280;24008;42.664;23.372;2023-06-26T02:29:23;94497.09;;;18.72;100.00
6136;BME280;24008;42.664;23.372;2023-06-26T02:31:49;94435.06;;;18.37;100.00
6136;BME280;24008;42.664;23.372;2023-06-26T02:34:18;94461.19;;;18.55;100.00
6136;BME280;24008;42.664;23.372;2023-06-26T02:36:44;94509.47;;;18.83;100.00
6136;BME280;24008;42.664;23.372;2023-06-26T02:39:11;94436.06;;;18.43;100.00
6136;BME280;24008;42.664;23.372;2023-06-26T02:41:39;94500.69;;;18.84;100.00
6136;BME280;24008;42.664;23.372;2023-06-26T02:44:06;94503.09;;;18.85;100.00
6136;BME280;24008;42.664;23.372;2023-06-26T02:46:33;94497.91;;;18.85;100.00
6136;BME280;24008;42.664;23.372;2023-06-26T02:48:59;94293.19;;;17.60;100.00
6136;BME280;24008;42.664;23.372;2023-06-26T02:51:28;94500.31;;;18.87;100.00
6136;BME280;24008;42.664;23.372;2023-06-26T02:53:54;94496.31;;;18.84;100.00
6136;BME280;24008;42.664;23.372;2023-06-26T02:56:21;94286.94;;;17.41;100.00
6136;BME280;24008;42.664;23.372;2023-06-26T02:58:48;94424.50;;;18.32;100.00
6136;BME280;24008;42.664;23.372;2023-06-26T03:01:28;94423.09;;;18.23;100.00
6136;BME280;24008;42.664;23.372;2023-06-26T03:03:55;94499.47;;;18.73;100.00
6136;BME280;24008;42.664;23.372;2023-06-26T03:06:22;94440.41;;;18.29;100.00
6136;BME280;24008;42.664;23.372;2023-06-26T03:08:50;94494.28;;;18.66;100.00
6136;BME280;24008;42.664;23.372;2023-06-26T03:11:17;94288.09;;;17.25;100.00
6136;BME280;24008;42.664;23.372;2023-06-26T03:13:43;94505.41;;;18.60;100.00
6136;BME280;24008;42.664;23.372;2023-06-26T03:16:10;94416.06;;;18.04;100.00
6136;BME280;24008;42.664;23.372;2023-06-26T03:18:37;94502.41;;;18.57;100.00
6136;BME280;24008;42.664;23.372;2023-06-26T03:21:04;94448.56;;;18.19;100.00
6136;BME280;24008;42.664;23.372;2023-06-26T03:23:31;94499.66;;;18.58;100.00
6136;BME280;24008;42.664;23.372;2023-06-26T03:25:59;94305.47;;;17.45;100.00
6136;BME280;24008;42.664;23.372;2023-06-26T03:28:26;94471.13;;;18.45;100.00
6136;BME280;24008;42.664;23.372;2023-06-26T03:30:52;94497.50;;;18.68;100.00
6136;BME280;24008;42.664;23.372;2023-06-26T03:33:19;94381.03;;;17.94;100.00
6136;BME280;24008;42.664;23.372;2023-06-26T03:35:46;94462.94;;;18.48;100.00
6136;BME280;24008;42.664;23.372;2023-06-26T03:38:13;94506.66;;;18.78;100.00
6136;BME280;24008;42.664;23.372;2023-06-26T03:40:40;94433.63;;;18.28;100.00
6136;BME280;24008;42.664;23.372;2023-06-26T03:43:08;94512.25;;;18.81;100.00
6136;BME280;24008;42.664;23.372;2023-06-26T03:45:35;94505.28;;;18.82;100.00
6136;BME280;24008;42.664;23.372;2023-06-26T03:48:01;93718.56;;;13.81;100.00
6136;BME280;24008;42.664;23.372;2023-06-26T03:50:28;94508.88;;;18.81;100.00
6136;BME280;24008;42.664;23.372;2023-06-26T03:52:55;94460.78;;;18.45;100.00
6136;BME280;24008;42.664;23.372;2023-06-26T03:55:22;94428.09;;;18.38;100.00
6136;BME280;24008;42.664;23.372;2023-06-26T03:57:49;94504.47;;;18.88;100.00
6136;BME280;24008;42.664;23.372;2023-06-26T04:00:18;94506.28;;;18.87;100.00
6136;BME280;24008;42.664;23.372;2023-06-26T04:02:44;94405.28;;;17.87;100.00
6136;BME280;24008;42.664;23.372;2023-06-26T04:05:11;94495.94;;;18.94;100.00
6136;BME280;24008;42.664;23.372;2023-06-26T04:07:38;94403.03;;;18.45;100.00
6136;BME280;24008;42.664;23.372;2023-06-26T04:10:06;94460.88;;;18.98;100.00
6136;BME280;24008;42.664;23.372;2023-06-26T04:12:33;94362.59;;;18.37;100.00
6136;BME280;24008;42.664;23.372;2023-06-26T04:14:59;94497.56;;;19.61;100.00
6136;BME280;24008;42.664;23.372;2023-06-26T04:17:28;94504.69;;;19.85;100.00
6136;BME280;24008;42.664;23.372;2023-06-26T04:19:54;94509.63;;;20.06;100.00
6136;BME280;24008;42.664;23.372;2023-06-26T04:22:21;94499.78;;;20.28;97.37
6136;BME280;24008;42.664;23.372;2023-06-26T04:24:48;94501.72;;;20.46;94.47
6136;BME280;24008;42.664;23.372;2023-06-26T04:27:15;94368.88;;;19.73;92.75
6136;BME280;24008;42.664;23.372;2023-06-26T04:29:42;94455.75;;;20.53;91.26
6136;BME280;24008;42.664;23.372;2023-06-26T04:32:08;94508.91;;;21.20;88.74
6136;BME280;24008;42.664;23.372;2023-06-26T04:34:40;94515.75;;;21.64;86.37
6136;BME280;24008;42.664;23.372;2023-06-26T04:37:09;94468.00;;;21.77;83.13
6136;BME280;24008;42.664;23.372;2023-06-26T04:39:36;94520.69;;;22.34;80.69
6136;BME280;24008;42.664;23.372;2023-06-26T04:42:04;94470.94;;;22.05;79.34
6136;BME280;24008;42.664;23.372;2023-06-26T04:44:32;94486.81;;;21.97;79.49
6136;BME280;24008;42.664;23.372;2023-06-26T04:46:59;94473.09;;;21.47;80.88
6136;BME280;24008;42.664;23.372;2023-06-26T04:49:26;94385.31;;;20.74;81.93
6136;BME280;24008;42.664;23.372;2023-06-26T04:51:55;94519.22;;;21.33;83.09
6136;BME280;24008;42.664;23.372;2023-06-26T04:54:25;94517.50;;;21.14;84.03
6136;BME280;24008;42.664;23.372;2023-06-26T04:56:53;94485.84;;;20.67;85.96
6136;BME280;24008;42.664;23.372;2023-06-26T04:59:19;94485.34;;;20.52;87.12
6136;BME280;24008;42.664;23.372;2023-06-26T05:01:46;94540.38;;;20.67;88.19
6136;BME280;24008;42.664;23.372;2023-06-26T05:04:13;94525.22;;;20.64;88.87
6136;BME280;24008;42.664;23.372;2023-06-26T05:06:40;94504.06;;;20.54;89.65
6136;BME280;24008;42.664;23.372;2023-06-26T05:09:08;94529.16;;;20.73;89.37
6136;BME280;24008;42.664;23.372;2023-06-26T05:11:36;94544.44;;;20.95;89.46
6136;BME280;24008;42.664;23.372;2023-06-26T05:14:03;94423.50;;;20.29;88.25
6136;BME280;24008;42.664;23.372;2023-06-26T05:16:32;94509.09;;;20.87;88.16
6136;BME280;24008;42.664;23.372;2023-06-26T05:18:59;94477.13;;;20.87;87.74
6136;BME280;24008;42.664;23.372;2023-06-26T05:21:27;94505.78;;;21.05;86.83
6136;BME280;24008;42.664;23.372;2023-06-26T05:23:56;94544.03;;;21.29;86.49
6136;BME280;24008;42.664;23.372;2023-06-26T05:26:26;94494.59;;;21.04;86.72
6136;BME280;24008;42.664;23.372;2023-06-26T05:28:53;94542.88;;;21.25;86.76
6136;BME280;24008;42.664;23.372;2023-06-26T05:31:21;94544.28;;;21.21;87.84
6136;BME280;24008;42.664;23.372;2023-06-26T05:33:48;94536.09;;;21.24;87.85
6136;BME280;24008;42.664;23.372;2023-06-26T05:36:16;94499.00;;;21.04;87.37
6136;BME280;24008;42.664;23.372;2023-06-26T05:38:44;94538.69;;;21.49;86.91
6136;BME280;24008;42.664;23.372;2023-06-26T05:41:12;94398.88;;;20.76;86.19
6136;BME280;24008;42.664;23.372;2023-06-26T05:43:40;94551.09;;;21.97;84.48
6136;BME280;24008;42.664;23.372;2023-06-26T05:46:07;94538.81;;;22.22;81.98
6136;BME280;24008;42.664;23.372;2023-06-26T05:48:34;94538.19;;;22.45;81.16
6136;BME280;24008;42.664;23.372;2023-06-26T05:51:01;94547.28;;;22.54;78.58
6136;BME280;24008;42.664;23.372;2023-06-26T05:53:29;94505.34;;;22.44;78.51
6136;BME280;24008;42.664;23.372;2023-06-26T05:55:57;94520.03;;;22.86;77.29
6136;BME280;24008;42.664;23.372;2023-06-26T05:58:26;94541.94;;;23.27;75.41
6136;BME280;24008;42.664;23.372;2023-06-26T06:00:54;94545.22;;;23.34;75.63
6136;BME280;24008;42.664;23.372;2023-06-26T06:03:21;94540.34;;;23.26;74.26
6136;BME280;24008;42.664;23.372;2023-06-26T06:05:48;94560.16;;;23.15;74.24
6136;BME280;24008;42.664;23.372;2023-06-26T06:08:14;94447.19;;;22.32;74.77
6136;BME280;24008;42.664;23.372;2023-06-26T06:10:41;94559.28;;;22.91;75.60
6136;BME280;24008;42.664;23.372;2023-06-26T06:13:08;94543.81;;;22.78;75.62
6136;BME280;24008;42.664;23.372;2023-06-26T06:15:35;94554.56;;;23.12;75.13
6136;BME280;24008;42.664;23.372;2023-06-26T06:18:03;94554.19;;;23.38;73.77
6136;BME280;24008;42.664;23.372;2023-06-26T06:20:30;94449.50;;;23.11;72.49
6136;BME280;24008;42.664;23.372;2023-06-26T06:22:57;94528.06;;;24.15;71.17
6136;BME280;24008;42.664;23.372;2023-06-26T06:25:23;94529.41;;;24.69;68.60
6136;BME280;24008;42.664;23.372;2023-06-26T06:27:50;94547.81;;;25.31;66.38
6136;BME280;24008;42.664;23.372;2023-06-26T06:30:17;94544.75;;;26.01;63.53
6136;BME280;24008;42.664;23.372;2023-06-26T06:32:44;94521.97;;;25.84;61.91
6136;BME280;24008;42.664;23.372;2023-06-26T06:35:13;94543.88;;;25.45;63.29
6136;BME280;24008;42.664;23.372;2023-06-26T06:37:40;94524.28;;;25.31;63.90
6136;BME280;24008;42.664;23.372;2023-06-26T06:40:08;94318.44;;;24.19;63.23
6136;BME280;24008;42.664;23.372;2023-06-26T06:42:36;94517.19;;;25.98;62.05
6136;BME280;24008;42.664;23.372;2023-06-26T06:45:03;94517.94;;;26.76;58.42
6136;BME280;24008;42.664;23.372;2023-06-26T06:47:30;94538.66;;;27.53;57.34
6136;BME280;24008;42.664;23.372;2023-06-26T06:49:57;94488.94;;;27.73;55.37
6136;BME280;24008;42.664;23.372;2023-06-26T06:52:25;94542.06;;;28.22;53.26
6136;BME280;24008;42.664;23.372;2023-06-26T06:54:53;94492.56;;;28.14;53.47
6136;BME280;24008;42.664;23.372;2023-06-26T06:57:20;94511.22;;;28.65;52.97
6136;BME280;24008;42.664;23.372;2023-06-26T06:59:47;94537.38;;;29.02;51.32
6136;BME280;24008;42.664;23.372;2023-06-26T07:02:14;94541.88;;;28.39;53.64
6136;BME280;24008;42.664;23.372;2023-06-26T07:04:40;94509.66;;;28.69;51.72
6136;BME280;24008;42.664;23.372;2023-06-26T07:07:07;94516.88;;;29.04;48.69
6136;BME280;24008;42.664;23.372;2023-06-26T07:09:36;94512.72;;;29.49;48.21
6136;BME280;24008;42.664;23.372;2023-06-26T07:12:04;94527.47;;;29.85;46.91
6136;BME280;24008;42.664;23.372;2023-06-26T07:14:30;94520.63;;;29.64;47.93
6136;BME280;24008;42.664;23.372;2023-06-26T07:16:57;94449.50;;;29.08;48.06
6136;BME280;24008;42.664;23.372;2023-06-26T07:19:24;94510.00;;;28.83;49.54
6136;BME280;24008;42.664;23.372;2023-06-26T07:21:51;94501.84;;;28.27;49.92
6136;BME280;24008;42.664;23.372;2023-06-26T07:24:17;94544.06;;;27.73;51.86
6136;BME280;24008;42.664;23.372;2023-06-26T07:26:45;94526.25;;;27.48;53.76
6136;BME280;24008;42.664;23.372;2023-06-26T07:29:12;94518.00;;;28.04;53.23
6136;BME280;24008;42.664;23.372;2023-06-26T07:31:39;94515.84;;;29.10;49.67
6136;BME280;24008;42.664;23.372;2023-06-26T07:34:06;94516.84;;;28.99;48.47
6136;BME280;24008;42.664;23.372;2023-06-26T07:36:33;94533.97;;;28.39;49.20
6136;BME280;24008;42.664;23.372;2023-06-26T07:38:59;94518.06;;;27.72;51.34
6136;BME280;24008;42.664;23.372;2023-06-26T07:41:27;94514.75;;;27.54;51.81
6136;BME280;24008;42.664;23.372;2023-06-26T07:43:57;94435.97;;;27.17;50.37
6136;BME280;24008;42.664;23.372;2023-06-26T07:46:24;94507.41;;;28.25;49.82
6136;BME280;24008;42.664;23.372;2023-06-26T07:48:51;94535.63;;;29.33;48.54
6136;BME280;24008;42.664;23.372;2023-06-26T07:51:17;94493.22;;;29.19;46.35
6136;BME280;24008;42.664;23.372;2023-06-26T07:53:44;94537.41;;;29.07;47.64
6136;BME280;24008;42.664;23.372;2023-06-26T07:56:14;94530.38;;;28.55;48.32
6136;BME280;24008;42.664;23.372;2023-06-26T07:58:42;94517.78;;;28.62;49.95
6136;BME280;24008;42.664;23.372;2023-06-26T08:01:10;94518.47;;;29.35;49.11
6136;BME280;24008;42.664;23.372;2023-06-26T08:03:37;94368.47;;;29.10;45.95
6136;BME280;24008;42.664;23.372;2023-06-26T08:06:05;94488.34;;;30.33;45.30
6136;BME280;24008;42.664;23.372;2023-06-26T08:08:32;94521.66;;;30.88;42.98
6136;BME280;24008;42.664;23.372;2023-06-26T08:10:59;94533.56;;;30.80;42.98
6136;BME280;24008;42.664;23.372;2023-06-26T08:13:29;94506.31;;;30.21;44.51
6136;BME280;24008;42.664;23.372;2023-06-26T08:15:56;94535.56;;;29.23;45.07
6136;BME280;24008;42.664;23.372;2023-06-26T08:18:24;94515.69;;;28.64;46.90
6136;BME280;24008;42.664;23.372;2023-06-26T08:20:51;94529.78;;;29.16;47.96
6136;BME280;24008;42.664;23.372;2023-06-26T08:23:18;94522.16;;;29.95;47.57
6136;BME280;24008;42.664;23.372;2023-06-26T08:25:44;94534.00;;;30.98;44.39
6136;BME280;24008;42.664;23.372;2023-06-26T08:28:12;94530.31;;;31.77;41.42
6136;BME280;24008;42.664;23.372;2023-06-26T08:30:39;94532.03;;;31.92;41.00
6136;BME280;24008;42.664;23.372;2023-06-26T08:33:05;94541.97;;;32.05;39.77
6136;BME280;24008;42.664;23.372;2023-06-26T08:35:38;94506.22;;;31.16;40.67
6136;BME280;24008;42.664;23.372;2023-06-26T08:38:05;94534.66;;;30.74;42.28
6136;BME280;24008;42.664;23.372;2023-06-26T08:40:34;94510.16;;;31.18;42.83
6136;BME280;24008;42.664;23.372;2023-06-26T08:43:01;94523.34;;;31.57;39.72
6136;BME280;24008;42.664;23.372;2023-06-26T08:45:29;94516.25;;;30.59;41.61
6136;BME280;24008;42.664;23.372;2023-06-26T08:48:00;94544.31;;;30.09;42.80
6136;BME280;24008;42.664;23.372;2023-06-26T08:50:30;94483.69;;;28.83;45.64
6136;BME280;24008;42.664;23.372;2023-06-26T08:53:04;94535.31;;;29.24;48.29
6136;BME280;24008;42.664;23.372;2023-06-26T08:55:33;94514.03;;;29.82;45.80
6136;BME280;24008;42.664;23.372;2023-06-26T08:58:02;94526.22;;;30.72;43.65
6136;BME280;24008;42.664;23.372;2023-06-26T09:00:30;94537.09;;;30.61;43.04
6136;BME280;24008;42.664;23.372;2023-06-26T09:02:58;94503.72;;;29.95;43.22
6136;BME280;24008;42.664;23.372;2023-06-26T09:05:25;94527.50;;;29.55;44.03
6136;BME280;24008;42.664;23.372;2023-06-26T09:07:53;94469.25;;;29.26;44.66
6136;BME280;24008;42.664;23.372;2023-06-26T09:10:22;94515.28;;;30.25;43.78
6136;BME280;24008;42.664;23.372;2023-06-26T09:12:49;94509.09;;;31.19;41.76
6136;BME280;24008;42.664;23.372;2023-06-26T09:15:19;94524.78;;;32.07;41.04
6136;BME280;24008;42.664;23.372;2023-06-26T09:17:47;94496.09;;;32.19;39.95
6136;BME280;24008;42.664;23.372;2023-06-26T09:20:14;94526.94;;;32.53;40.29
6136;BME280;24008;42.664;23.372;2023-06-26T09:22:42;94477.41;;;32.11;39.23
6136;BME280;24008;42.664;23.372;2023-06-26T09:25:10;94516.31;;;31.42;39.63
6136;BME280;24008;42.664;23.372;2023-06-26T09:27:39;94499.84;;;30.67;42.13
6136;BME280;24008;42.664;23.372;2023-06-26T09:30:07;94525.28;;;31.02;41.49
6136;BME280;24008;42.664;23.372;2023-06-26T09:32:34;94522.47;;;30.84;41.35
6136;BME280;24008;42.664;23.372;2023-06-26T09:35:02;94285.56;;;28.62;42.54
6136;BME280;24008;42.664;23.372;2023-06-26T09:37:29;94488.78;;;29.45;44.17
6136;BME280;24008;42.664;23.372;2023-06-26T09:39:56;94525.66;;;29.70;43.04
6136;BME280;24008;42.664;23.372;2023-06-26T09:42:23;94483.22;;;29.62;43.83
6136;BME280;24008;42.664;23.372;2023-06-26T09:44:52;94516.41;;;29.73;43.94
6136;BME280;24008;42.664;23.372;2023-06-26T09:47:20;94535.84;;;29.26;45.98
6136;BME280;24008;42.664;23.372;2023-06-26T09:49:48;94507.22;;;28.52;45.18
6136;BME280;24008;42.664;23.372;2023-06-26T09:52:16;94490.56;;;27.84;45.95
6136;BME280;24008;42.664;23.372;2023-06-26T09:54:43;94522.84;;;27.48;47.26
6136;BME280;24008;42.664;23.372;2023-06-26T09:57:12;94511.03;;;26.92;47.39
6136;BME280;24008;42.664;23.372;2023-06-26T09:59:40;94490.56;;;26.67;48.58
6136;BME280;24008;42.664;23.372;2023-06-26T10:02:08;94533.97;;;26.58;49.88
6136;BME280;24008;42.664;23.372;2023-06-26T10:04:36;94539.72;;;26.16;49.58
6136;BME280;24008;42.664;23.372;2023-06-26T10:07:05;94523.56;;;25.86;50.32
6136;BME280;24008;42.664;23.372;2023-06-26T10:09:33;94490.91;;;25.55;50.63
6136;BME280;24008;42.664;23.372;2023-06-26T10:12:03;94523.09;;;25.89;51.89
6136;BME280;24008;42.664;23.372;2023-06-26T10:14:34;94515.25;;;25.89;51.18
6136;BME280;24008;42.664;23.372;2023-06-26T10:17:03;94513.94;;;25.69;52.30
6136;BME280;24008;42.664;23.372;2023-06-26T10:19:33;94493.13;;;25.63;51.78
6136;BME280;24008;42.664;23.372;2023-06-26T10:22:02;94499.03;;;25.70;52.37
6136;BME280;24008;42.664;23.372;2023-06-26T10:24:35;94524.06;;;25.82;52.12
6136;BME280;24008;42.664;23.372;2023-06-26T10:27:07;94503.50;;;25.74;52.14
6136;BME280;24008;42.664;23.372;2023-06-26T10:29:36;94497.66;;;25.67;51.32
6136;BME280;24008;42.664;23.372;2023-06-26T10:32:05;94512.63;;;25.55;52.03
6136;BME280;24008;42.664;23.372;2023-06-26T10:34:35;94487.41;;;25.16;54.08
6136;BME280;24008;42.664;23.372;2023-06-26T10:37:02;94500.81;;;24.91;54.43
6136;BME280;24008;42.664;23.372;2023-06-26T10:39:45;94512.34;;;24.78;53.04
6136;BME280;24008;42.664;23.372;2023-06-26T10:42:13;94527.16;;;24.72;51.91
6136;BME280;24008;42.664;23.372;2023-06-26T10:44:40;94524.22;;;24.57;52.04
6136;BME280;24008;42.664;23.372;2023-06-26T10:47:08;94355.63;;;23.34;50.99
6136;BME280;24008;42.664;23.372;2023-06-26T10:49:38;94468.22;;;24.13;52.35
6136;BME280;24008;42.664;23.372;2023-06-26T10:52:05;94517.56;;;24.50;52.65
6136;BME280;24008;42.664;23.372;2023-06-26T10:54:32;94480.22;;;24.37;53.21
6136;BME280;24008;42.664;23.372;2023-06-26T10:57:01;94512.75;;;24.58;54.87
6136;BME280;24008;42.664;23.372;2023-06-26T10:59:31;94503.00;;;24.54;52.90
6136;BME280;24008;42.664;23.372;2023-06-26T11:02:01;94499.91;;;24.57;54.46
6136;BME280;24008;42.664;23.372;2023-06-26T11:04:42;94494.91;;;24.55;54.55
6136;BME280;24008;42.664;23.372;2023-06-26T11:07:15;94497.88;;;24.59;54.08
6136;BME280;24008;42.664;23.372;2023-06-26T11:09:54;94454.09;;;24.37;54.93
6136;BME280;24008;42.664;23.372;2023-06-26T11:12:38;94486.00;;;24.68;54.49
6136;BME280;24008;42.664;23.372;2023-06-26T11:15:08;94479.25;;;24.84;54.17
6136;BME280;24008;42.664;23.372;2023-06-26T11:17:35;94498.41;;;25.18;53.46
6136;BME280;24008;42.664;23.372;2023-06-26T11:20:05;94471.38;;;25.12;53.19
6136;BME280;24008;42.664;23.372;2023-06-26T11:22:54;94499.53;;;25.55;51.77
6136;BME280;24008;42.664;23.372;2023-06-26T11:25:35;94505.66;;;25.77;51.27
6136;BME280;24008;42.664;23.372;2023-06-26T11:28:03;94441.66;;;25.68;49.79
6136;BME280;24008;42.664;23.372;2023-06-26T11:30:30;94449.19;;;26.03;48.58
6136;BME280;24008;42.664;23.372;2023-06-26T11:33:08;94437.00;;;26.14;48.64
6136;BME280;24008;42.664;23.372;2023-06-26T11:35:36;94480.84;;;26.89;48.62
6136;BME280;24008;42.664;23.372;2023-06-26T11:38:04;94484.91;;;27.66;48.99
6136;BME280;24008;42.664;23.372;2023-06-26T11:40:32;94455.88;;;27.82;47.16
6136;BME280;24008;42.664;23.372;2023-06-26T11:43:00;94482.03;;;28.09;46.57
6136;BME280;24008;42.664;23.372;2023-06-26T11:45:28;94478.84;;;28.02;47.20
6136;BME280;24008;42.664;23.372;2023-06-26T11:47:56;94479.88;;;27.96;47.21
6136;BME280;24008;42.664;23.372;2023-06-26T11:50:23;94487.34;;;27.72;45.68
6136;BME280;24008;42.664;23.372;2023-06-26T11:52:54;94435.78;;;27.24;47.05
6136;BME280;24008;42.664;23.372;2023-06-26T11:55:22;94485.94;;;27.28;47.66
6136;BME280;24008;42.664;23.372;2023-06-26T11:57:49;94497.81;;;27.08;47.46
6136;BME280;24008;42.664;23.372;2023-06-26T12:00:17;94468.69;;;26.83;48.90
6136;BME280;24008;42.664;23.372;2023-06-26T12:02:44;94459.22;;;26.77;48.63
6136;BME280;24008;42.664;23.372;2023-06-26T12:05:12;94486.38;;;27.19;47.99
6136;BME280;24008;42.664;23.372;2023-06-26T12:07:40;94493.28;;;27.31;48.21
6136;BME280;24008;42.664;23.372;2023-06-26T12:10:10;94455.91;;;27.13;48.89
6136;BME280;24008;42.664;23.372;2023-06-26T12:12:39;94478.72;;;27.13;47.96
6136;BME280;24008;42.664;23.372;2023-06-26T12:15:07;94419.09;;;26.76;48.62
6136;BME280;24008;42.664;23.372;2023-06-26T12:17:37;94480.09;;;27.20;47.92
6136;BME280;24008;42.664;23.372;2023-06-26T12:20:06;94479.66;;;27.29;47.29
6136;BME280;24008;42.664;23.372;2023-06-26T12:22:43;94476.91;;;27.13;45.00
6136;BME280;24008;42.664;23.372;2023-06-26T12:25:13;94470.06;;;27.12;45.38
6136;BME280;24008;42.664;23.372;2023-06-26T12:27:40;94352.38;;;26.35;46.60
6136;BME280;24008;42.664;23.372;2023-06-26T12:30:13;94448.69;;;26.99;47.63
6136;BME280;24008;42.664;23.372;2023-06-26T12:32:44;94379.28;;;26.52;47.19
6136;BME280;24008;42.664;23.372;2023-06-26T12:35:12;94445.53;;;26.97;46.92
6136;BME280;24008;42.664;23.372;2023-06-26T12:37:39;94473.44;;;27.08;47.59
6136;BME280;24008;42.664;23.372;2023-06-26T12:40:17;94471.25;;;27.00;48.61
6136;BME280;24008;42.664;23.372;2023-06-26T12:42:47;94479.06;;;26.95;46.59
6136;BME280;24008;42.664;23.372;2023-06-26T12:45:14;94482.19;;;26.70;46.40
6136;BME280;24008;42.664;23.372;2023-06-26T12:47:41;94478.94;;;26.58;47.27
6136;BME280;24008;42.664;23.372;2023-06-26T12:50:09;94479.00;;;26.41;47.09
6136;BME280;24008;42.664;23.372;2023-06-26T12:52:35;94453.56;;;25.98;47.79
6136;BME280;24008;42.664;23.372;2023-06-26T12:55:02;94449.56;;;25.73;48.71
6136;BME280;24008;42.664;23.372;2023-06-26T12:57:32;94478.66;;;25.60;49.09
6136;BME280;24008;42.664;23.372;2023-06-26T12:59:59;94481.69;;;25.52;50.98
6136;BME280;24008;42.664;23.372;2023-06-26T13:02:26;94452.84;;;25.30;51.38